Hooper Bay, AK

4:02 AM AKDT on August 24, 2016 (GMT -0800)
Chevak | | Change Station

Elev 75 ft 61.54 °N, 165.60 °W | Updated 6 minutes ago

Light Rain
Light Rain
47 °F
Feels Like 47 °F
N
10
Wind Variable Wind from North

Today
High -- | Low -- °F
--% Chance of Precip.
Yesterday
High -- | Low -- °F
Precip. -- in
Pressure 30.06 in
Visibility 9.0 miles
Clouds Overcast 2200 ft
Dew Point 46 °F
Humidity 97%
Rainfall 0.00 in
Snow Depth Not available.
7:34 AM 10:32 PM
Waning Gibbous, 57% visible
METAR PAVA 241156Z AUTO 35009KT 9SM -RA OVC022 08/08 A3002 RMK AO2 RAB02 SLP178 P0000 60000 T00830078 10094 20083 51007
Pressure 30.06 in
Visibility 9.0 miles
Clouds Overcast 2200 ft
Dew Point 46 °F
Humidity 97%
Rainfall 0.00 in
Snow Depth Not available.
7:34 AM 10:32 PM
Waning Gibbous, 57% visible
METAR PAVA 241156Z AUTO 35009KT 9SM -RA OVC022 08/08 A3002 RMK AO2 RAB02 SLP178 P0000 60000 T00830078 10094 20083 51007

10-Day Weather Forecast

Almanac

Astronomy

Aug. 24, 2016 Rise Set
Actual Time
Civil Twilight
Nautical Twilight
Astronomical Twilight
Moon
Length of Visible Light
Length of Day
Tomorrow will be .
, % of the Moon is Illuminated

Today's Extremes

State Highs State Lows

Community

WunderPhotos

Upload Photos

1,934,572 photos uploaded!

WunderBlog® & News

Nearby

Air Quality

  Air Quality AQ Index Pollutant
Not available.

Snow Depth

Station Depth Elevation

Earthquake Activity

City Distance Mag. Time & Date
Minimum magnitude displayed is 2.5.

Coastal Water Temperatures

Place Temperature

Stations

Nearby Weather Stations

Station Location Temp. Windchill Dew Point Humidity Wind Precip. Elev Updated Type
                   

Watches & Warnings

There are currently no watches in effect.